createdAt,value
2019-03-31T00:01:24.698Z,25.90
2019-03-31T00:03:53.126Z,27.90
2019-03-31T00:06:21.578Z,26.90
2019-03-31T00:08:49.996Z,28.37
2019-03-31T00:11:18.441Z,29.43
2019-03-31T00:13:46.859Z,29.50
2019-03-31T00:16:15.381Z,28.60
2019-03-31T00:18:43.799Z,30.80
2019-03-31T00:21:12.264Z,31.10
2019-03-31T00:23:40.681Z,31.50
2019-03-31T00:26:09.134Z,31.20
2019-03-31T00:28:37.564Z,30.13
2019-03-31T00:31:06.552Z,30.50
2019-03-31T00:33:34.984Z,30.20
2019-03-31T00:36:03.430Z,35.83
2019-03-31T00:38:31.854Z,32.90
2019-03-31T00:41:00.324Z,31.37
2019-03-31T00:43:28.746Z,30.33
2019-03-31T00:45:57.238Z,31.03
2019-03-31T00:48:25.701Z,31.50
2019-03-31T00:50:54.107Z,31.63
2019-03-31T00:53:22.570Z,34.00
2019-03-31T00:55:50.988Z,31.33
2019-03-31T00:58:19.503Z,30.53
2019-03-31T01:00:49.629Z,31.37
2019-03-31T01:03:20.118Z,31.37
2019-03-31T01:05:48.599Z,29.30
2019-03-31T01:08:17.491Z,30.70
2019-03-31T01:10:45.914Z,31.77
2019-03-31T01:13:14.431Z,31.77
2019-03-31T01:15:43.220Z,30.33
2019-03-31T01:18:12.098Z,32.10
2019-03-31T01:20:40.858Z,33.20
2019-03-31T01:23:09.476Z,34.00
2019-03-31T01:25:37.966Z,35.23
2019-03-31T01:28:06.408Z,31.87
2019-03-31T01:30:34.834Z,32.10
2019-03-31T01:33:03.629Z,31.27
2019-03-31T01:35:32.121Z,31.60
2019-03-31T01:38:00.709Z,34.00
2019-03-31T01:40:29.173Z,25.67
2019-03-31T01:42:57.731Z,29.80
2019-03-31T01:45:26.624Z,26.97
2019-03-31T01:47:55.206Z,24.37
2019-03-31T01:50:25.403Z,19.40
2019-03-31T01:52:53.855Z,27.87
2019-03-31T01:55:22.341Z,30.83
2019-03-31T01:57:50.796Z,28.50
2019-03-31T02:00:26.655Z,30.73
2019-03-31T02:02:55.182Z,28.40
2019-03-31T02:05:23.607Z,28.93
2019-03-31T02:07:52.052Z,29.93
2019-03-31T02:10:20.466Z,19.93
2019-03-31T02:12:48.923Z,14.70
2019-03-31T02:15:17.411Z,19.03
2019-03-31T02:17:45.827Z,21.70
2019-03-31T02:20:14.276Z,19.20
2019-03-31T02:22:42.704Z,16.90
2019-03-31T02:25:11.150Z,21.63
2019-03-31T02:27:39.570Z,18.53
2019-03-31T02:30:08.191Z,17.00
2019-03-31T02:32:36.605Z,17.67
2019-03-31T02:35:05.825Z,13.70
2019-03-31T02:37:34.232Z,16.57
2019-03-31T02:40:02.745Z,14.50
2019-03-31T02:42:31.161Z,14.87
2019-03-31T02:44:59.604Z,15.30
2019-03-31T02:47:28.013Z,13.77
2019-03-31T02:49:56.461Z,9.63
2019-03-31T02:52:24.944Z,12.67
2019-03-31T02:54:53.389Z,12.77
2019-03-31T02:57:22.475Z,14.23
2019-03-31T02:59:51.393Z,14.77
2019-03-31T03:02:21.081Z,10.60
2019-03-31T03:04:50.094Z,13.03
2019-03-31T03:07:19.075Z,13.80
2019-03-31T03:09:49.421Z,12.70
2019-03-31T03:12:19.280Z,13.63
2019-03-31T03:14:49.831Z,14.30
2019-03-31T03:17:18.314Z,15.23
2019-03-31T03:19:46.753Z,14.10
2019-03-31T03:22:15.175Z,14.10
2019-03-31T03:24:43.621Z,15.40
2019-03-31T03:27:12.038Z,14.07
2019-03-31T03:29:40.471Z,15.33
2019-03-31T03:32:08.904Z,13.83
2019-03-31T03:34:37.353Z,15.70
2019-03-31T03:37:05.849Z,18.50
2019-03-31T03:39:34.272Z,16.43
2019-03-31T03:42:02.870Z,17.00
2019-03-31T03:44:31.301Z,15.00
2019-03-31T03:46:59.746Z,13.60
2019-03-31T03:49:28.164Z,14.03
2019-03-31T03:51:56.609Z,14.17
2019-03-31T03:54:25.042Z,13.70
2019-03-31T03:56:53.482Z,12.90
2019-03-31T03:59:21.901Z,14.37
2019-03-31T04:01:50.350Z,13.63
2019-03-31T04:04:18.757Z,15.00
2019-03-31T04:06:47.205Z,13.77
2019-03-31T04:09:15.717Z,13.37
2019-03-31T04:11:44.152Z,14.60
2019-03-31T04:14:12.572Z,13.70
2019-03-31T04:16:41.038Z,14.70
2019-03-31T04:19:09.457Z,15.10
2019-03-31T04:21:37.896Z,15.50
2019-03-31T04:24:06.320Z,14.77
2019-03-31T04:26:34.763Z,14.40
2019-03-31T04:29:03.186Z,15.00
2019-03-31T04:31:31.630Z,15.33
2019-03-31T04:34:00.051Z,15.50
2019-03-31T04:36:28.492Z,14.27
2019-03-31T04:39:00.069Z,15.10
2019-03-31T04:41:27.075Z,15.17
2019-03-31T04:43:55.499Z,14.33
2019-03-31T04:46:23.934Z,15.83
2019-03-31T04:48:52.358Z,15.30
2019-03-31T04:51:20.771Z,14.80
2019-03-31T04:53:49.291Z,14.93
2019-03-31T04:56:17.702Z,16.07
2019-03-31T04:58:46.142Z,14.50
2019-03-31T05:01:14.630Z,16.10
2019-03-31T05:03:43.075Z,15.43
2019-03-31T05:06:11.502Z,15.90
2019-03-31T05:08:39.946Z,15.90
2019-03-31T05:11:08.368Z,16.83
2019-03-31T05:13:36.817Z,15.17
2019-03-31T05:16:05.303Z,16.80
2019-03-31T05:18:33.749Z,16.03
2019-03-31T05:21:02.238Z,15.90
2019-03-31T05:23:30.685Z,16.23
2019-03-31T05:25:59.097Z,16.73
2019-03-31T05:28:27.538Z,15.77
2019-03-31T05:30:55.953Z,16.53
2019-03-31T05:33:24.398Z,17.10
2019-03-31T05:35:52.825Z,17.87
2019-03-31T05:38:21.266Z,17.10
2019-03-31T05:40:49.720Z,17.13
2019-03-31T05:43:18.131Z,13.07
2019-03-31T05:45:46.540Z,14.03
2019-03-31T05:48:15.028Z,16.53
2019-03-31T05:50:43.472Z,15.53
2019-03-31T05:53:11.880Z,16.30
2019-03-31T05:55:40.326Z,15.60
2019-03-31T05:58:08.742Z,11.20
2019-03-31T06:00:42.431Z,11.30
2019-03-31T06:03:10.865Z,12.87
2019-03-31T06:05:39.305Z,12.60
2019-03-31T06:08:07.790Z,10.73
2019-03-31T06:10:36.275Z,11.47
2019-03-31T06:13:05.162Z,9.70
2019-03-31T06:15:33.601Z,6.10
2019-03-31T06:18:02.011Z,9.17
2019-03-31T06:20:30.517Z,7.57
2019-03-31T06:22:58.928Z,6.53
2019-03-31T06:25:27.369Z,6.17
2019-03-31T06:27:55.951Z,8.00
2019-03-31T06:30:24.530Z,7.00
2019-03-31T06:32:55.473Z,6.77
2019-03-31T06:35:23.099Z,5.00
2019-03-31T06:37:51.512Z,6.90
2019-03-31T06:40:20.026Z,4.80
2019-03-31T06:42:48.443Z,4.10
2019-03-31T06:45:16.890Z,3.30
2019-03-31T06:47:45.334Z,2.10
2019-03-31T06:50:13.821Z,1.40
2019-03-31T06:52:42.251Z,1.70
2019-03-31T06:55:10.653Z,1.87
2019-03-31T06:57:39.092Z,1.80
2019-03-31T07:00:07.731Z,2.00
2019-03-31T07:02:36.165Z,1.67
2019-03-31T07:05:07.030Z,1.93
2019-03-31T07:07:35.456Z,2.20
2019-03-31T07:10:06.013Z,1.70
2019-03-31T07:12:34.452Z,1.70
2019-03-31T07:15:03.138Z,1.50
2019-03-31T07:17:31.580Z,2.77
2019-03-31T07:19:59.998Z,1.50
2019-03-31T07:22:28.437Z,1.60
2019-03-31T07:24:56.844Z,1.30
2019-03-31T07:27:25.287Z,2.13
2019-03-31T07:29:53.709Z,1.50
2019-03-31T07:32:22.144Z,1.50
2019-03-31T07:34:50.557Z,2.03
2019-03-31T07:37:19.002Z,2.13
2019-03-31T07:39:47.604Z,1.63
2019-03-31T07:42:16.077Z,1.20
2019-03-31T07:44:44.482Z,1.50
2019-03-31T07:47:12.923Z,1.60
2019-03-31T07:49:41.398Z,1.73
2019-03-31T07:52:09.837Z,2.30
2019-03-31T07:54:38.246Z,1.20
2019-03-31T07:57:07.237Z,1.77
2019-03-31T07:59:35.797Z,1.33
2019-03-31T08:02:04.229Z,1.30
2019-03-31T08:04:32.639Z,1.70
2019-03-31T08:07:01.076Z,1.47
2019-03-31T08:09:29.498Z,1.70
2019-03-31T08:11:57.904Z,1.30
2019-03-31T08:14:26.350Z,1.20
2019-03-31T08:16:54.759Z,1.73
2019-03-31T08:19:23.205Z,1.57
2019-03-31T08:21:51.619Z,1.40
2019-03-31T08:24:20.067Z,1.50
2019-03-31T08:26:48.482Z,1.50
2019-03-31T08:29:16.921Z,1.53
2019-03-31T08:31:45.322Z,1.90
2019-03-31T08:34:13.767Z,2.20
2019-03-31T08:36:42.174Z,1.47
2019-03-31T08:39:10.630Z,1.47
2019-03-31T08:41:39.048Z,1.50
2019-03-31T08:44:07.496Z,1.67
2019-03-31T08:46:35.898Z,1.30
2019-03-31T08:49:04.406Z,1.53
2019-03-31T08:51:32.808Z,1.77
2019-03-31T08:54:01.239Z,1.53
2019-03-31T08:56:29.650Z,1.30
2019-03-31T08:58:58.146Z,2.30
2019-03-31T09:01:26.566Z,1.30
2019-03-31T09:03:54.997Z,1.60
2019-03-31T09:06:23.402Z,1.93
2019-03-31T09:08:51.837Z,1.50
2019-03-31T09:11:20.247Z,1.70
2019-03-31T09:13:48.673Z,1.60
2019-03-31T09:16:17.087Z,1.40
2019-03-31T09:18:45.539Z,1.83
2019-03-31T09:21:13.950Z,1.90
2019-03-31T09:23:42.360Z,1.43
2019-03-31T09:26:10.803Z,1.53
2019-03-31T09:28:39.208Z,1.47
2019-03-31T09:31:07.640Z,1.40
2019-03-31T09:33:39.302Z,1.77
2019-03-31T09:36:15.918Z,1.50
2019-03-31T09:38:36.413Z,1.10
2019-03-31T09:41:04.912Z,1.20
2019-03-31T09:43:33.383Z,1.20
2019-03-31T09:46:01.882Z,1.73
2019-03-31T09:48:30.291Z,1.50
2019-03-31T09:50:58.722Z,1.53
2019-03-31T09:53:28.001Z,1.60
2019-03-31T09:55:56.438Z,1.40
2019-03-31T09:58:24.845Z,1.83
2019-03-31T10:00:53.426Z,1.27
2019-03-31T10:03:22.072Z,1.07
2019-03-31T10:05:50.663Z,1.20
2019-03-31T10:08:21.943Z,0.90
2019-03-31T10:10:49.366Z,1.20
2019-03-31T10:13:17.772Z,1.23
2019-03-31T10:15:46.221Z,1.33
2019-03-31T10:18:17.946Z,1.20
2019-03-31T10:20:44.804Z,1.10
2019-03-31T10:23:13.286Z,1.30
2019-03-31T10:25:41.723Z,1.07
2019-03-31T10:28:10.130Z,1.10
2019-03-31T10:30:40.283Z,0.97
2019-03-31T10:33:09.155Z,1.13
2019-03-31T10:35:37.658Z,1.20
2019-03-31T10:38:06.307Z,1.43
2019-03-31T10:40:34.751Z,1.50
2019-03-31T10:43:03.166Z,1.40
2019-03-31T10:45:31.598Z,1.73
2019-03-31T10:48:00.005Z,1.70
2019-03-31T10:50:28.485Z,1.40
2019-03-31T10:52:56.916Z,1.33
2019-03-31T10:55:25.330Z,1.50
2019-03-31T10:57:53.770Z,1.00
2019-03-31T11:00:31.111Z,1.50
2019-03-31T11:02:59.632Z,1.10
2019-03-31T11:05:28.113Z,1.50
2019-03-31T11:07:56.556Z,1.53
2019-03-31T11:10:24.968Z,1.60
2019-03-31T11:12:53.412Z,1.37
2019-03-31T11:15:21.823Z,1.80
2019-03-31T11:17:50.339Z,1.27
2019-03-31T11:20:18.746Z,1.20
2019-03-31T11:22:48.838Z,1.10
2019-03-31T11:25:21.169Z,1.60
2019-03-31T11:27:47.501Z,1.60
2019-03-31T11:30:16.975Z,1.43
2019-03-31T11:32:45.420Z,1.60
2019-03-31T11:35:13.842Z,1.50
2019-03-31T11:37:42.276Z,1.50
2019-03-31T11:40:10.767Z,1.63
2019-03-31T11:42:39.203Z,1.30
2019-03-31T11:45:07.882Z,1.80
2019-03-31T11:47:36.325Z,1.47
2019-03-31T11:50:06.772Z,1.40
2019-03-31T11:52:35.213Z,1.60
2019-03-31T11:55:04.300Z,1.80
2019-03-31T11:57:32.742Z,1.40
2019-03-31T12:00:01.309Z,1.63
2019-03-31T12:02:29.724Z,1.53
2019-03-31T12:04:58.163Z,1.03
2019-03-31T12:07:28.169Z,1.43
2019-03-31T12:09:56.733Z,1.47
2019-03-31T12:12:25.146Z,1.20
2019-03-31T12:15:00.280Z,1.47
2019-03-31T12:17:23.725Z,1.30
2019-03-31T12:19:52.170Z,1.60
2019-03-31T12:22:20.584Z,1.30
2019-03-31T12:24:49.032Z,1.60
2019-03-31T12:27:17.451Z,1.43
2019-03-31T12:29:45.893Z,2.03
2019-03-31T12:32:14.302Z,1.20
2019-03-31T12:34:42.756Z,1.50
2019-03-31T12:37:11.165Z,1.70
2019-03-31T12:39:39.624Z,1.20
2019-03-31T12:42:08.039Z,1.40
2019-03-31T12:44:36.477Z,1.50
2019-03-31T12:47:04.890Z,1.20
2019-03-31T12:49:33.344Z,1.27
2019-03-31T12:52:01.828Z,2.00
2019-03-31T12:54:30.277Z,1.50
2019-03-31T12:56:58.689Z,1.57
2019-03-31T12:59:27.700Z,1.20
2019-03-31T13:01:56.129Z,1.70
2019-03-31T13:04:24.540Z,1.17
2019-03-31T13:06:52.982Z,1.53
2019-03-31T13:09:21.392Z,1.60
2019-03-31T13:11:50.479Z,1.80
2019-03-31T13:14:19.136Z,1.20
2019-03-31T13:16:47.569Z,1.17
2019-03-31T13:19:15.996Z,1.90
2019-03-31T13:21:44.440Z,1.47
2019-03-31T13:24:12.851Z,1.53
2019-03-31T13:26:41.293Z,1.60
2019-03-31T13:29:09.712Z,1.20
2019-03-31T13:31:38.164Z,1.10
2019-03-31T13:34:06.646Z,1.40
2019-03-31T13:36:35.085Z,1.33
2019-03-31T13:39:05.140Z,1.30
2019-03-31T13:41:33.583Z,1.57
2019-03-31T13:44:01.997Z,1.37
2019-03-31T13:46:30.442Z,1.30
2019-03-31T13:48:58.854Z,1.10
2019-03-31T13:51:27.302Z,1.40
2019-03-31T13:53:55.720Z,1.53
2019-03-31T13:56:24.157Z,1.83
2019-03-31T13:58:52.854Z,1.10
2019-03-31T14:01:21.521Z,1.30
2019-03-31T14:03:49.909Z,1.30
2019-03-31T14:06:18.351Z,1.90
2019-03-31T14:08:46.773Z,1.30
2019-03-31T14:11:15.234Z,1.20
2019-03-31T14:13:43.638Z,1.67
2019-03-31T14:16:12.080Z,1.50
2019-03-31T14:18:40.489Z,1.47
2019-03-31T14:21:08.932Z,1.30
2019-03-31T14:23:37.341Z,1.37
2019-03-31T14:26:05.815Z,1.57
2019-03-31T14:28:34.246Z,1.50
2019-03-31T14:31:02.688Z,1.57
2019-03-31T14:33:31.096Z,1.60
2019-03-31T14:35:59.515Z,1.50
2019-03-31T14:38:39.392Z,1.40
2019-03-31T14:40:58.094Z,1.03
2019-03-31T14:43:28.171Z,1.60
2019-03-31T14:45:56.743Z,1.43
2019-03-31T14:48:25.247Z,1.10
2019-03-31T14:50:53.667Z,1.47
2019-03-31T14:53:22.104Z,1.17
2019-03-31T14:55:50.520Z,1.43
2019-03-31T14:58:18.954Z,1.60
2019-03-31T15:00:47.382Z,1.10
2019-03-31T15:03:18.077Z,1.00
2019-03-31T15:05:45.941Z,1.20
2019-03-31T15:08:14.374Z,1.20
2019-03-31T15:10:42.786Z,1.13
2019-03-31T15:13:11.232Z,1.53
2019-03-31T15:15:39.642Z,1.27
2019-03-31T15:18:08.080Z,1.30
2019-03-31T15:20:36.496Z,1.30
2019-03-31T15:23:05.001Z,1.20
2019-03-31T15:25:33.476Z,1.13
2019-03-31T15:28:02.003Z,1.40
2019-03-31T15:30:30.461Z,2.00
2019-03-31T15:32:58.904Z,1.60
2019-03-31T15:35:27.316Z,1.50
2019-03-31T15:37:55.753Z,1.40
2019-03-31T15:40:24.162Z,1.87
2019-03-31T15:42:52.595Z,1.60
2019-03-31T15:45:21.006Z,1.60
2019-03-31T15:47:49.447Z,1.33
2019-03-31T15:50:17.946Z,1.50
2019-03-31T15:52:46.382Z,1.40
2019-03-31T15:55:14.848Z,1.40
2019-03-31T15:57:43.277Z,1.40
2019-03-31T16:00:13.026Z,1.30
2019-03-31T16:02:41.503Z,1.30
2019-03-31T16:05:12.659Z,1.40
2019-03-31T16:07:40.678Z,1.83
2019-03-31T16:10:09.749Z,1.57
2019-03-31T16:12:38.528Z,1.10
2019-03-31T16:15:07.923Z,1.50
2019-03-31T16:17:36.673Z,1.57
2019-03-31T16:20:06.873Z,1.23
2019-03-31T16:22:35.929Z,1.60
2019-03-31T16:25:07.971Z,1.30
2019-03-31T16:27:36.454Z,1.40
2019-03-31T16:30:06.613Z,1.50
2019-03-31T16:32:35.056Z,1.50
2019-03-31T16:35:04.031Z,1.40
2019-03-31T16:37:32.439Z,1.30
2019-03-31T16:40:00.877Z,1.60
2019-03-31T16:42:29.288Z,1.57
2019-03-31T16:44:58.656Z,1.70
2019-03-31T16:47:27.221Z,1.20
2019-03-31T16:49:55.658Z,1.50
2019-03-31T16:52:24.061Z,1.23
2019-03-31T16:54:52.496Z,1.10
2019-03-31T16:57:20.909Z,1.50
2019-03-31T16:59:49.318Z,1.30
2019-03-31T17:02:17.757Z,1.40
2019-03-31T17:04:46.166Z,1.70
2019-03-31T17:07:14.597Z,1.30
2019-03-31T17:09:51.277Z,1.10
2019-03-31T17:12:13.185Z,1.40
2019-03-31T17:14:41.597Z,1.50
2019-03-31T17:17:10.036Z,1.10
2019-03-31T17:19:38.513Z,1.63
2019-03-31T17:22:06.954Z,1.50
2019-03-31T17:24:35.369Z,1.90
2019-03-31T17:27:03.871Z,1.60
2019-03-31T17:29:32.346Z,1.60
2019-03-31T17:32:00.845Z,1.80
2019-03-31T17:34:29.260Z,1.70
2019-03-31T17:36:57.695Z,1.57
2019-03-31T17:39:26.650Z,1.40
2019-03-31T17:41:55.220Z,1.50
2019-03-31T17:44:23.633Z,1.90
2019-03-31T17:46:52.064Z,1.70
2019-03-31T17:49:20.476Z,1.53
2019-03-31T17:51:48.915Z,1.90
2019-03-31T17:54:17.460Z,1.63
2019-03-31T17:56:45.904Z,1.67
2019-03-31T17:59:14.317Z,1.40
2019-03-31T18:01:42.756Z,1.60
2019-03-31T18:04:11.179Z,1.60
2019-03-31T18:06:39.618Z,1.63
2019-03-31T18:09:09.198Z,1.60
2019-03-31T18:11:37.637Z,1.90
2019-03-31T18:14:06.938Z,1.60
2019-03-31T18:16:35.531Z,1.63
2019-03-31T18:19:03.947Z,1.67
2019-03-31T18:21:32.375Z,1.40
2019-03-31T18:24:00.790Z,1.80
2019-03-31T18:26:29.299Z,1.73
2019-03-31T18:28:57.709Z,1.50
2019-03-31T18:31:26.135Z,1.60
2019-03-31T18:33:54.561Z,1.80
2019-03-31T18:36:35.898Z,1.70
2019-03-31T18:38:53.134Z,1.90
2019-03-31T18:41:21.541Z,1.70
2019-03-31T18:43:51.792Z,1.80
2019-03-31T18:46:20.178Z,1.67
2019-03-31T18:48:48.618Z,2.13
2019-03-31T18:51:17.096Z,1.83
2019-03-31T18:53:50.004Z,1.57
2019-03-31T18:56:36.042Z,1.60
2019-03-31T18:59:08.543Z,1.90
2019-03-31T19:01:41.567Z,2.20
2019-03-31T19:04:14.384Z,1.70
2019-03-31T19:06:47.543Z,1.87
2019-03-31T19:09:17.622Z,2.10
2019-03-31T19:12:03.584Z,1.70
2019-03-31T19:14:39.871Z,1.80
2019-03-31T19:17:09.921Z,1.60
2019-03-31T19:19:48.836Z,1.93
2019-03-31T19:22:30.922Z,2.03
2019-03-31T19:25:04.016Z,1.90
2019-03-31T19:27:37.106Z,2.30
2019-03-31T19:30:26.168Z,2.40
2019-03-31T19:32:56.219Z,2.33
2019-03-31T19:35:38.036Z,2.40
2019-03-31T19:38:13.850Z,2.53
2019-03-31T19:41:04.503Z,2.83
2019-03-31T19:43:30.468Z,2.70
2019-03-31T19:46:00.547Z,2.83
2019-03-31T19:48:33.516Z,2.50
2019-03-31T19:51:19.828Z,2.57
2019-03-31T19:53:52.332Z,2.93
2019-03-31T19:56:25.072Z,3.17
2019-03-31T19:58:58.043Z,6.20
2019-03-31T20:01:28.123Z,5.10
2019-03-31T20:04:00.898Z,3.27
2019-03-31T20:06:36.769Z,3.10
2019-03-31T20:09:25.650Z,3.10
2019-03-31T20:11:55.728Z,3.27
2019-03-31T20:14:25.786Z,3.40
2019-03-31T20:17:01.343Z,3.70
2019-03-31T20:19:31.395Z,3.43
2019-03-31T20:22:01.481Z,3.30
2019-03-31T20:24:31.532Z,3.90
2019-03-31T20:27:04.288Z,2.97
2019-03-31T20:29:36.942Z,3.47
2019-03-31T20:32:09.546Z,2.10
2019-03-31T20:34:42.333Z,2.10
2019-03-31T20:37:15.378Z,2.33
2019-03-31T20:39:56.810Z,2.27
2019-03-31T20:42:28.861Z,2.20
2019-03-31T20:44:57.271Z,2.40
2019-03-31T20:47:25.716Z,2.50
2019-03-31T20:49:54.143Z,2.27
2019-03-31T20:52:22.588Z,2.00
2019-03-31T20:54:51.006Z,2.30
2019-03-31T20:57:19.440Z,2.20
2019-03-31T20:59:47.985Z,2.27
2019-03-31T21:02:16.740Z,2.40
2019-03-31T21:04:45.156Z,2.50
2019-03-31T21:07:13.596Z,2.20
2019-03-31T21:09:45.175Z,2.17
2019-03-31T21:12:12.177Z,2.00
2019-03-31T21:14:40.590Z,2.27
2019-03-31T21:17:09.033Z,2.20
2019-03-31T21:19:37.451Z,2.10
2019-03-31T21:22:05.864Z,2.30
2019-03-31T21:24:34.313Z,1.80
2019-03-31T21:27:02.765Z,2.00
2019-03-31T21:29:31.247Z,2.00
2019-03-31T21:31:59.667Z,2.60
2019-03-31T21:34:28.182Z,1.93
2019-03-31T21:36:56.609Z,2.30
2019-03-31T21:39:25.054Z,2.10
2019-03-31T21:41:53.468Z,2.20
2019-03-31T21:44:21.914Z,2.13
2019-03-31T21:46:50.339Z,2.00
2019-03-31T21:49:18.776Z,2.20
2019-03-31T21:51:47.191Z,2.50
2019-03-31T21:54:15.633Z,2.10
2019-03-31T21:56:44.056Z,2.13
2019-03-31T21:59:12.502Z,2.30
2019-03-31T22:01:40.993Z,2.23
2019-03-31T22:04:09.443Z,2.10
2019-03-31T22:06:37.855Z,2.47
2019-03-31T22:09:08.877Z,2.17
2019-03-31T22:11:37.293Z,2.20
2019-03-31T22:14:05.733Z,2.30
2019-03-31T22:16:34.157Z,2.10
2019-03-31T22:19:02.595Z,2.30
2019-03-31T22:21:31.012Z,2.40
2019-03-31T22:23:59.457Z,1.97
2019-03-31T22:26:27.874Z,2.23
2019-03-31T22:28:56.444Z,2.33
2019-03-31T22:31:24.928Z,2.63
2019-03-31T22:33:53.349Z,2.30
2019-03-31T22:36:21.834Z,2.23
2019-03-31T22:38:51.729Z,2.20
2019-03-31T22:41:20.248Z,2.20
2019-03-31T22:43:51.652Z,2.30
2019-03-31T22:46:20.165Z,2.07
2019-03-31T22:48:48.595Z,2.30
2019-03-31T22:51:17.118Z,2.00
2019-03-31T22:53:45.539Z,2.67
2019-03-31T22:56:13.987Z,2.37
2019-03-31T22:58:42.476Z,2.70
2019-03-31T23:01:10.999Z,2.47
2019-03-31T23:03:39.413Z,2.57
2019-03-31T23:06:07.859Z,2.57
2019-03-31T23:08:36.281Z,2.20
2019-03-31T23:11:04.879Z,2.60
2019-03-31T23:13:33.291Z,2.50
2019-03-31T23:16:01.801Z,2.53
2019-03-31T23:18:30.217Z,2.63
2019-03-31T23:20:58.655Z,2.87
2019-03-31T23:23:27.068Z,2.87
2019-03-31T23:25:55.514Z,2.90
2019-03-31T23:28:23.938Z,2.70
2019-03-31T23:30:52.359Z,2.60
2019-03-31T23:33:20.806Z,2.53
2019-03-31T23:35:49.225Z,3.00
2019-03-31T23:38:17.675Z,3.10
2019-03-31T23:40:46.098Z,2.57
2019-03-31T23:43:14.543Z,2.73
2019-03-31T23:45:42.976Z,2.90
2019-03-31T23:48:11.416Z,3.10
2019-03-31T23:50:39.829Z,3.10
2019-03-31T23:53:08.274Z,2.73
2019-03-31T23:55:36.690Z,3.27
2019-03-31T23:58:05.138Z,2.70
